sensor_id;sensor_type;location;lat;lon;timestamp;P1;durP1;ratioP1;P2;durP2;ratioP2
74808;SDS011;63338;39.544;2.596;2023-06-22T00:01:05;23.27;;;8.00;;
74808;SDS011;63338;39.544;2.596;2023-06-22T00:03:31;27.13;;;8.52;;
74808;SDS011;63338;39.544;2.596;2023-06-22T00:05:57;22.20;;;8.65;;
74808;SDS011;63338;39.544;2.596;2023-06-22T00:08:26;24.52;;;7.70;;
74808;SDS011;63338;39.544;2.596;2023-06-22T00:10:52;23.85;;;8.18;;
74808;SDS011;63338;39.544;2.596;2023-06-22T00:13:18;26.60;;;7.85;;
74808;SDS011;63338;39.544;2.596;2023-06-22T00:15:44;23.35;;;7.75;;
74808;SDS011;63338;39.544;2.596;2023-06-22T00:18:11;22.48;;;7.50;;
74808;SDS011;63338;39.544;2.596;2023-06-22T00:20:38;22.05;;;7.90;;
74808;SDS011;63338;39.544;2.596;2023-06-22T00:23:05;21.63;;;7.53;;
74808;SDS011;63338;39.544;2.596;2023-06-22T00:25:37;26.17;;;7.80;;
74808;SDS011;63338;39.544;2.596;2023-06-22T00:28:06;24.35;;;8.10;;
74808;SDS011;63338;39.544;2.596;2023-06-22T00:30:33;23.05;;;7.93;;
74808;SDS011;63338;39.544;2.596;2023-06-22T00:32:59;25.70;;;7.55;;
74808;SDS011;63338;39.544;2.596;2023-06-22T00:35:27;19.75;;;7.10;;
74808;SDS011;63338;39.544;2.596;2023-06-22T00:37:55;21.95;;;7.25;;
74808;SDS011;63338;39.544;2.596;2023-06-22T00:40:30;24.73;;;7.60;;
74808;SDS011;63338;39.544;2.596;2023-06-22T00:42:57;27.52;;;8.20;;
74808;SDS011;63338;39.544;2.596;2023-06-22T00:45:26;19.25;;;7.97;;
74808;SDS011;63338;39.544;2.596;2023-06-22T00:47:56;20.35;;;7.63;;
74808;SDS011;63338;39.544;2.596;2023-06-22T00:50:24;24.48;;;8.60;;
74808;SDS011;63338;39.544;2.596;2023-06-22T00:52:52;25.13;;;8.05;;
74808;SDS011;63338;39.544;2.596;2023-06-22T00:55:22;21.42;;;8.18;;
74808;SDS011;63338;39.544;2.596;2023-06-22T00:57:49;24.48;;;7.45;;
74808;SDS011;63338;39.544;2.596;2023-06-22T01:00:16;18.92;;;7.68;;
74808;SDS011;63338;39.544;2.596;2023-06-22T01:02:46;25.60;;;8.27;;
74808;SDS011;63338;39.544;2.596;2023-06-22T01:05:13;25.55;;;8.93;;
74808;SDS011;63338;39.544;2.596;2023-06-22T01:07:42;33.00;;;7.78;;
74808;SDS011;63338;39.544;2.596;2023-06-22T01:10:27;22.08;;;7.35;;
74808;SDS011;63338;39.544;2.596;2023-06-22T01:13:13;25.88;;;7.80;;
74808;SDS011;63338;39.544;2.596;2023-06-22T01:16:03;22.77;;;8.13;;
74808;SDS011;63338;39.544;2.596;2023-06-22T01:19:07;20.20;;;7.18;;
74808;SDS011;63338;39.544;2.596;2023-06-22T01:21:55;27.27;;;7.65;;
74808;SDS011;63338;39.544;2.596;2023-06-22T01:24:33;21.15;;;7.97;;
74808;SDS011;63338;39.544;2.596;2023-06-22T01:29:48;24.08;;;8.20;;
74808;SDS011;63338;39.544;2.596;2023-06-22T01:32:29;25.60;;;7.97;;
74808;SDS011;63338;39.544;2.596;2023-06-22T01:34:58;29.42;;;8.55;;
74808;SDS011;63338;39.544;2.596;2023-06-22T01:37:27;23.10;;;7.82;;
74808;SDS011;63338;39.544;2.596;2023-06-22T01:39:58;27.67;;;8.23;;
74808;SDS011;63338;39.544;2.596;2023-06-22T01:42:25;21.52;;;8.02;;
74808;SDS011;63338;39.544;2.596;2023-06-22T01:44:52;26.35;;;8.45;;
74808;SDS011;63338;39.544;2.596;2023-06-22T01:47:22;25.17;;;8.00;;
74808;SDS011;63338;39.544;2.596;2023-06-22T01:49:49;27.35;;;8.15;;
74808;SDS011;63338;39.544;2.596;2023-06-22T01:52:19;22.90;;;7.53;;
74808;SDS011;63338;39.544;2.596;2023-06-22T01:54:46;27.08;;;8.23;;
74808;SDS011;63338;39.544;2.596;2023-06-22T01:57:13;26.27;;;7.45;;
74808;SDS011;63338;39.544;2.596;2023-06-22T01:59:52;23.00;;;8.05;;
74808;SDS011;63338;39.544;2.596;2023-06-22T02:02:23;26.33;;;8.27;;
74808;SDS011;63338;39.544;2.596;2023-06-22T02:05:05;23.10;;;7.82;;
74808;SDS011;63338;39.544;2.596;2023-06-22T02:07:34;23.67;;;7.60;;
74808;SDS011;63338;39.544;2.596;2023-06-22T02:12:38;26.42;;;7.35;;
74808;SDS011;63338;39.544;2.596;2023-06-22T02:15:07;26.08;;;8.82;;
74808;SDS011;63338;39.544;2.596;2023-06-22T02:17:35;23.88;;;8.23;;
74808;SDS011;63338;39.544;2.596;2023-06-22T02:20:04;21.58;;;7.18;;
74808;SDS011;63338;39.544;2.596;2023-06-22T02:22:33;22.10;;;6.95;;
74808;SDS011;63338;39.544;2.596;2023-06-22T02:24:59;23.65;;;8.05;;
74808;SDS011;63338;39.544;2.596;2023-06-22T02:27:25;24.38;;;7.53;;
74808;SDS011;63338;39.544;2.596;2023-06-22T02:29:51;25.40;;;7.20;;
74808;SDS011;63338;39.544;2.596;2023-06-22T02:32:17;21.55;;;7.53;;
74808;SDS011;63338;39.544;2.596;2023-06-22T02:34:43;22.13;;;7.75;;
74808;SDS011;63338;39.544;2.596;2023-06-22T02:37:13;24.48;;;8.80;;
74808;SDS011;63338;39.544;2.596;2023-06-22T02:39:40;21.02;;;6.95;;
74808;SDS011;63338;39.544;2.596;2023-06-22T02:42:06;23.92;;;7.43;;
74808;SDS011;63338;39.544;2.596;2023-06-22T02:44:32;27.73;;;7.85;;
74808;SDS011;63338;39.544;2.596;2023-06-22T02:47:01;26.85;;;7.38;;
74808;SDS011;63338;39.544;2.596;2023-06-22T02:49:27;26.85;;;9.10;;
74808;SDS011;63338;39.544;2.596;2023-06-22T02:51:53;24.73;;;7.75;;
74808;SDS011;63338;39.544;2.596;2023-06-22T02:54:20;21.27;;;7.75;;
74808;SDS011;63338;39.544;2.596;2023-06-22T02:56:46;30.75;;;8.98;;
74808;SDS011;63338;39.544;2.596;2023-06-22T02:59:13;25.02;;;7.82;;
74808;SDS011;63338;39.544;2.596;2023-06-22T03:01:40;22.73;;;8.00;;
74808;SDS011;63338;39.544;2.596;2023-06-22T03:04:06;29.52;;;7.55;;
74808;SDS011;63338;39.544;2.596;2023-06-22T03:06:36;18.00;;;6.95;;
74808;SDS011;63338;39.544;2.596;2023-06-22T03:09:03;25.90;;;8.13;;
74808;SDS011;63338;39.544;2.596;2023-06-22T03:11:36;25.13;;;7.43;;
74808;SDS011;63338;39.544;2.596;2023-06-22T03:14:02;28.05;;;8.05;;
74808;SDS011;63338;39.544;2.596;2023-06-22T03:16:31;28.75;;;8.25;;
74808;SDS011;63338;39.544;2.596;2023-06-22T03:19:00;24.35;;;8.02;;
74808;SDS011;63338;39.544;2.596;2023-06-22T03:21:30;25.75;;;8.57;;
74808;SDS011;63338;39.544;2.596;2023-06-22T03:23:57;24.00;;;7.35;;
74808;SDS011;63338;39.544;2.596;2023-06-22T03:26:23;24.70;;;8.25;;
74808;SDS011;63338;39.544;2.596;2023-06-22T03:28:52;23.98;;;7.60;;
74808;SDS011;63338;39.544;2.596;2023-06-22T03:31:18;29.48;;;8.50;;
74808;SDS011;63338;39.544;2.596;2023-06-22T03:33:47;22.92;;;8.75;;
74808;SDS011;63338;39.544;2.596;2023-06-22T03:36:15;21.00;;;7.63;;
74808;SDS011;63338;39.544;2.596;2023-06-22T03:38:45;29.52;;;8.25;;
74808;SDS011;63338;39.544;2.596;2023-06-22T03:41:14;23.55;;;8.15;;
74808;SDS011;63338;39.544;2.596;2023-06-22T03:43:40;22.42;;;7.63;;
74808;SDS011;63338;39.544;2.596;2023-06-22T03:46:07;28.48;;;8.25;;
74808;SDS011;63338;39.544;2.596;2023-06-22T03:48:35;24.27;;;8.07;;
74808;SDS011;63338;39.544;2.596;2023-06-22T03:51:02;26.10;;;8.35;;
74808;SDS011;63338;39.544;2.596;2023-06-22T03:53:31;24.73;;;7.60;;
74808;SDS011;63338;39.544;2.596;2023-06-22T03:55:57;24.67;;;7.88;;
74808;SDS011;63338;39.544;2.596;2023-06-22T03:58:23;21.35;;;7.53;;
74808;SDS011;63338;39.544;2.596;2023-06-22T04:00:50;24.90;;;8.32;;
74808;SDS011;63338;39.544;2.596;2023-06-22T04:03:19;21.77;;;8.05;;
74808;SDS011;63338;39.544;2.596;2023-06-22T04:05:46;23.88;;;8.80;;
74808;SDS011;63338;39.544;2.596;2023-06-22T04:08:13;23.55;;;7.93;;
74808;SDS011;63338;39.544;2.596;2023-06-22T04:10:40;22.05;;;7.82;;
74808;SDS011;63338;39.544;2.596;2023-06-22T04:13:06;27.70;;;7.40;;
74808;SDS011;63338;39.544;2.596;2023-06-22T04:15:35;22.77;;;8.00;;
74808;SDS011;63338;39.544;2.596;2023-06-22T04:18:01;21.40;;;8.00;;
74808;SDS011;63338;39.544;2.596;2023-06-22T04:20:31;25.60;;;8.02;;
74808;SDS011;63338;39.544;2.596;2023-06-22T04:22:57;27.67;;;8.15;;
74808;SDS011;63338;39.544;2.596;2023-06-22T04:25:23;22.58;;;7.45;;
74808;SDS011;63338;39.544;2.596;2023-06-22T04:27:49;23.05;;;7.68;;
74808;SDS011;63338;39.544;2.596;2023-06-22T04:30:16;22.55;;;8.13;;
74808;SDS011;63338;39.544;2.596;2023-06-22T04:32:43;26.50;;;7.82;;
74808;SDS011;63338;39.544;2.596;2023-06-22T04:35:10;23.70;;;8.15;;
74808;SDS011;63338;39.544;2.596;2023-06-22T04:37:36;21.20;;;7.47;;
74808;SDS011;63338;39.544;2.596;2023-06-22T04:40:03;21.13;;;8.13;;
74808;SDS011;63338;39.544;2.596;2023-06-22T04:42:30;25.38;;;7.30;;
74808;SDS011;63338;39.544;2.596;2023-06-22T04:44:57;20.33;;;7.25;;
74808;SDS011;63338;39.544;2.596;2023-06-22T04:47:26;28.30;;;7.57;;
74808;SDS011;63338;39.544;2.596;2023-06-22T04:49:52;27.58;;;8.20;;
74808;SDS011;63338;39.544;2.596;2023-06-22T04:52:25;24.67;;;8.07;;
74808;SDS011;63338;39.544;2.596;2023-06-22T04:54:53;26.30;;;8.80;;
74808;SDS011;63338;39.544;2.596;2023-06-22T04:57:23;25.55;;;7.80;;
74808;SDS011;63338;39.544;2.596;2023-06-22T04:59:55;22.10;;;7.68;;
74808;SDS011;63338;39.544;2.596;2023-06-22T05:02:21;24.23;;;7.57;;
74808;SDS011;63338;39.544;2.596;2023-06-22T05:04:53;22.70;;;8.02;;
74808;SDS011;63338;39.544;2.596;2023-06-22T05:07:22;24.38;;;8.27;;
74808;SDS011;63338;39.544;2.596;2023-06-22T05:09:51;23.45;;;7.85;;
74808;SDS011;63338;39.544;2.596;2023-06-22T05:12:17;19.50;;;7.03;;
74808;SDS011;63338;39.544;2.596;2023-06-22T05:14:43;23.67;;;7.32;;
74808;SDS011;63338;39.544;2.596;2023-06-22T05:17:09;24.00;;;7.28;;
74808;SDS011;63338;39.544;2.596;2023-06-22T05:19:39;19.90;;;7.35;;
74808;SDS011;63338;39.544;2.596;2023-06-22T05:22:10;22.85;;;8.18;;
74808;SDS011;63338;39.544;2.596;2023-06-22T05:24:38;27.02;;;7.30;;
74808;SDS011;63338;39.544;2.596;2023-06-22T05:27:04;28.33;;;7.68;;
74808;SDS011;63338;39.544;2.596;2023-06-22T05:29:30;22.38;;;7.70;;
74808;SDS011;63338;39.544;2.596;2023-06-22T05:31:56;18.88;;;6.97;;
74808;SDS011;63338;39.544;2.596;2023-06-22T05:34:22;22.33;;;7.45;;
74808;SDS011;63338;39.544;2.596;2023-06-22T05:36:48;22.80;;;7.38;;
74808;SDS011;63338;39.544;2.596;2023-06-22T05:39:16;23.85;;;7.60;;
74808;SDS011;63338;39.544;2.596;2023-06-22T05:41:45;27.08;;;7.72;;
74808;SDS011;63338;39.544;2.596;2023-06-22T05:48:07;20.92;;;7.47;;
74808;SDS011;63338;39.544;2.596;2023-06-22T05:50:36;19.13;;;7.30;;
74808;SDS011;63338;39.544;2.596;2023-06-22T05:53:03;27.05;;;8.25;;
74808;SDS011;63338;39.544;2.596;2023-06-22T05:59:10;27.25;;;7.45;;
74808;SDS011;63338;39.544;2.596;2023-06-22T06:01:39;31.65;;;8.55;;
74808;SDS011;63338;39.544;2.596;2023-06-22T06:04:06;20.25;;;7.13;;
74808;SDS011;63338;39.544;2.596;2023-06-22T06:06:35;22.00;;;7.45;;
74808;SDS011;63338;39.544;2.596;2023-06-22T06:09:04;26.10;;;8.25;;
74808;SDS011;63338;39.544;2.596;2023-06-22T06:11:33;23.08;;;7.15;;
74808;SDS011;63338;39.544;2.596;2023-06-22T06:13:59;21.13;;;6.97;;
74808;SDS011;63338;39.544;2.596;2023-06-22T06:16:25;23.33;;;7.03;;
74808;SDS011;63338;39.544;2.596;2023-06-22T06:18:52;23.33;;;6.72;;
74808;SDS011;63338;39.544;2.596;2023-06-22T06:21:20;21.10;;;6.25;;
74808;SDS011;63338;39.544;2.596;2023-06-22T06:23:49;21.45;;;7.22;;
74808;SDS011;63338;39.544;2.596;2023-06-22T06:26:20;19.35;;;6.43;;
74808;SDS011;63338;39.544;2.596;2023-06-22T06:29:03;22.05;;;6.72;;
74808;SDS011;63338;39.544;2.596;2023-06-22T06:31:38;17.45;;;6.57;;
74808;SDS011;63338;39.544;2.596;2023-06-22T06:34:04;24.33;;;7.47;;
74808;SDS011;63338;39.544;2.596;2023-06-22T06:36:38;21.80;;;7.55;;
74808;SDS011;63338;39.544;2.596;2023-06-22T06:39:14;18.05;;;7.28;;
74808;SDS011;63338;39.544;2.596;2023-06-22T06:41:41;24.88;;;7.53;;
74808;SDS011;63338;39.544;2.596;2023-06-22T06:44:09;23.88;;;7.90;;
74808;SDS011;63338;39.544;2.596;2023-06-22T06:46:35;20.52;;;6.75;;
74808;SDS011;63338;39.544;2.596;2023-06-22T06:49:05;22.83;;;7.97;;
74808;SDS011;63338;39.544;2.596;2023-06-22T06:51:34;25.15;;;8.20;;
74808;SDS011;63338;39.544;2.596;2023-06-22T06:54:00;19.52;;;7.30;;
74808;SDS011;63338;39.544;2.596;2023-06-22T06:56:27;25.48;;;7.88;;
74808;SDS011;63338;39.544;2.596;2023-06-22T06:58:55;20.80;;;7.45;;
74808;SDS011;63338;39.544;2.596;2023-06-22T07:01:21;24.77;;;7.75;;
74808;SDS011;63338;39.544;2.596;2023-06-22T07:03:48;23.52;;;7.82;;
74808;SDS011;63338;39.544;2.596;2023-06-22T07:06:14;23.30;;;6.90;;
74808;SDS011;63338;39.544;2.596;2023-06-22T07:08:43;21.50;;;6.53;;
74808;SDS011;63338;39.544;2.596;2023-06-22T07:11:12;19.88;;;6.70;;
74808;SDS011;63338;39.544;2.596;2023-06-22T07:13:38;23.30;;;7.43;;
74808;SDS011;63338;39.544;2.596;2023-06-22T07:16:07;22.95;;;6.40;;
74808;SDS011;63338;39.544;2.596;2023-06-22T07:18:49;21.02;;;6.38;;
74808;SDS011;63338;39.544;2.596;2023-06-22T07:21:16;22.30;;;7.63;;
74808;SDS011;63338;39.544;2.596;2023-06-22T07:23:42;27.60;;;12.35;;
74808;SDS011;63338;39.544;2.596;2023-06-22T07:26:32;52.10;;;31.83;;
74808;SDS011;63338;39.544;2.596;2023-06-22T07:32:53;20.30;;;7.30;;
74808;SDS011;63338;39.544;2.596;2023-06-22T07:35:19;23.67;;;6.22;;
74808;SDS011;63338;39.544;2.596;2023-06-22T07:37:45;26.33;;;7.15;;
74808;SDS011;63338;39.544;2.596;2023-06-22T07:40:11;19.98;;;6.65;;
74808;SDS011;63338;39.544;2.596;2023-06-22T07:42:38;25.15;;;6.90;;
74808;SDS011;63338;39.544;2.596;2023-06-22T07:45:05;22.02;;;6.93;;
74808;SDS011;63338;39.544;2.596;2023-06-22T07:47:33;26.90;;;6.82;;
74808;SDS011;63338;39.544;2.596;2023-06-22T07:50:21;28.20;;;7.38;;
74808;SDS011;63338;39.544;2.596;2023-06-22T07:54:03;22.42;;;6.75;;
74808;SDS011;63338;39.544;2.596;2023-06-22T07:56:29;22.85;;;5.82;;
74808;SDS011;63338;39.544;2.596;2023-06-22T07:58:55;20.20;;;5.78;;
74808;SDS011;63338;39.544;2.596;2023-06-22T08:01:23;19.83;;;5.97;;
74808;SDS011;63338;39.544;2.596;2023-06-22T08:03:49;21.13;;;6.50;;
74808;SDS011;63338;39.544;2.596;2023-06-22T08:06:34;19.85;;;6.13;;
74808;SDS011;63338;39.544;2.596;2023-06-22T08:09:39;19.80;;;5.97;;
74808;SDS011;63338;39.544;2.596;2023-06-22T08:13:18;22.90;;;5.88;;
74808;SDS011;63338;39.544;2.596;2023-06-22T08:15:45;25.83;;;6.38;;
74808;SDS011;63338;39.544;2.596;2023-06-22T08:18:13;22.30;;;6.00;;
74808;SDS011;63338;39.544;2.596;2023-06-22T08:20:39;19.83;;;6.80;;
74808;SDS011;63338;39.544;2.596;2023-06-22T08:23:12;17.83;;;5.88;;
74808;SDS011;63338;39.544;2.596;2023-06-22T08:25:45;24.58;;;6.10;;
74808;SDS011;63338;39.544;2.596;2023-06-22T08:28:21;22.10;;;5.70;;
74808;SDS011;63338;39.544;2.596;2023-06-22T08:30:47;19.50;;;6.43;;
74808;SDS011;63338;39.544;2.596;2023-06-22T08:33:13;21.33;;;5.57;;
74808;SDS011;63338;39.544;2.596;2023-06-22T08:35:39;22.77;;;6.28;;
74808;SDS011;63338;39.544;2.596;2023-06-22T08:38:07;23.67;;;6.35;;
74808;SDS011;63338;39.544;2.596;2023-06-22T08:40:39;20.60;;;5.90;;
74808;SDS011;63338;39.544;2.596;2023-06-22T08:43:05;22.60;;;5.47;;
74808;SDS011;63338;39.544;2.596;2023-06-22T08:45:31;24.95;;;7.05;;
74808;SDS011;63338;39.544;2.596;2023-06-22T08:48:18;17.90;;;5.22;;
74808;SDS011;63338;39.544;2.596;2023-06-22T08:51:48;20.65;;;5.90;;
74808;SDS011;63338;39.544;2.596;2023-06-22T08:57:51;20.38;;;5.50;;
74808;SDS011;63338;39.544;2.596;2023-06-22T09:03:40;17.73;;;5.30;;
74808;SDS011;63338;39.544;2.596;2023-06-22T09:15:07;17.95;;;5.90;;
74808;SDS011;63338;39.544;2.596;2023-06-22T09:18:19;22.52;;;5.20;;
74808;SDS011;63338;39.544;2.596;2023-06-22T09:32:17;17.73;;;4.88;;
74808;SDS011;63338;39.544;2.596;2023-06-22T09:35:44;19.40;;;4.78;;
74808;SDS011;63338;39.544;2.596;2023-06-22T09:46:33;18.20;;;4.85;;
74808;SDS011;63338;39.544;2.596;2023-06-22T09:50:02;17.52;;;4.88;;
74808;SDS011;63338;39.544;2.596;2023-06-22T09:55:31;17.30;;;4.60;;
74808;SDS011;63338;39.544;2.596;2023-06-22T10:05:09;14.57;;;4.57;;
74808;SDS011;63338;39.544;2.596;2023-06-22T10:08:11;14.55;;;4.45;;
74808;SDS011;63338;39.544;2.596;2023-06-22T10:10:44;19.85;;;4.25;;
74808;SDS011;63338;39.544;2.596;2023-06-22T10:13:13;17.55;;;4.40;;
74808;SDS011;63338;39.544;2.596;2023-06-22T10:22:09;16.95;;;4.60;;
74808;SDS011;63338;39.544;2.596;2023-06-22T10:24:44;18.77;;;4.68;;
74808;SDS011;63338;39.544;2.596;2023-06-22T10:27:42;16.70;;;4.93;;
74808;SDS011;63338;39.544;2.596;2023-06-22T10:30:12;17.40;;;4.70;;
74808;SDS011;63338;39.544;2.596;2023-06-22T10:33:01;12.30;;;4.57;;
74808;SDS011;63338;39.544;2.596;2023-06-22T10:36:25;13.25;;;3.72;;
74808;SDS011;63338;39.544;2.596;2023-06-22T10:38:57;16.77;;;4.15;;
74808;SDS011;63338;39.544;2.596;2023-06-22T10:41:39;17.52;;;4.78;;
74808;SDS011;63338;39.544;2.596;2023-06-22T10:44:19;18.88;;;4.85;;
74808;SDS011;63338;39.544;2.596;2023-06-22T10:46:58;20.20;;;4.90;;
74808;SDS011;63338;39.544;2.596;2023-06-22T10:49:32;13.95;;;4.55;;
74808;SDS011;63338;39.544;2.596;2023-06-22T10:52:08;15.30;;;4.07;;
74808;SDS011;63338;39.544;2.596;2023-06-22T10:54:42;16.08;;;4.10;;
74808;SDS011;63338;39.544;2.596;2023-06-22T10:57:28;15.25;;;4.15;;
74808;SDS011;63338;39.544;2.596;2023-06-22T11:00:09;14.70;;;3.80;;
74808;SDS011;63338;39.544;2.596;2023-06-22T11:02:41;16.85;;;4.18;;
74808;SDS011;63338;39.544;2.596;2023-06-22T11:05:11;20.58;;;4.60;;
74808;SDS011;63338;39.544;2.596;2023-06-22T11:07:46;15.70;;;4.20;;
74808;SDS011;63338;39.544;2.596;2023-06-22T11:10:20;16.38;;;4.45;;
74808;SDS011;63338;39.544;2.596;2023-06-22T11:13:19;15.63;;;3.95;;
74808;SDS011;63338;39.544;2.596;2023-06-22T11:15:56;14.70;;;4.45;;
74808;SDS011;63338;39.544;2.596;2023-06-22T11:18:28;14.10;;;4.13;;
74808;SDS011;63338;39.544;2.596;2023-06-22T11:21:00;15.50;;;4.28;;
74808;SDS011;63338;39.544;2.596;2023-06-22T11:23:45;17.58;;;4.75;;
74808;SDS011;63338;39.544;2.596;2023-06-22T11:29:07;17.33;;;4.10;;
74808;SDS011;63338;39.544;2.596;2023-06-22T11:31:37;17.13;;;5.07;;
74808;SDS011;63338;39.544;2.596;2023-06-22T11:34:09;15.80;;;4.63;;
74808;SDS011;63338;39.544;2.596;2023-06-22T11:36:43;15.85;;;4.32;;
74808;SDS011;63338;39.544;2.596;2023-06-22T11:39:15;14.63;;;3.92;;
74808;SDS011;63338;39.544;2.596;2023-06-22T11:41:49;14.20;;;4.45;;
74808;SDS011;63338;39.544;2.596;2023-06-22T11:44:22;13.15;;;3.97;;
74808;SDS011;63338;39.544;2.596;2023-06-22T11:46:51;17.45;;;5.20;;
74808;SDS011;63338;39.544;2.596;2023-06-22T11:49:21;12.20;;;3.95;;
74808;SDS011;63338;39.544;2.596;2023-06-22T11:51:53;14.93;;;4.07;;
74808;SDS011;63338;39.544;2.596;2023-06-22T11:54:26;16.95;;;4.00;;
74808;SDS011;63338;39.544;2.596;2023-06-22T11:56:52;14.90;;;4.05;;
74808;SDS011;63338;39.544;2.596;2023-06-22T11:59:28;15.02;;;4.53;;
74808;SDS011;63338;39.544;2.596;2023-06-22T12:01:57;14.20;;;3.97;;
74808;SDS011;63338;39.544;2.596;2023-06-22T12:04:25;21.10;;;5.13;;
74808;SDS011;63338;39.544;2.596;2023-06-22T12:06:58;14.82;;;4.43;;
74808;SDS011;63338;39.544;2.596;2023-06-22T12:09:37;15.50;;;4.53;;
74808;SDS011;63338;39.544;2.596;2023-06-22T12:12:08;18.48;;;4.63;;
74808;SDS011;63338;39.544;2.596;2023-06-22T12:15:09;20.50;;;5.68;;
74808;SDS011;63338;39.544;2.596;2023-06-22T12:17:39;16.67;;;5.15;;
74808;SDS011;63338;39.544;2.596;2023-06-22T12:20:09;25.45;;;6.05;;
74808;SDS011;63338;39.544;2.596;2023-06-22T12:22:38;17.35;;;4.75;;
74808;SDS011;63338;39.544;2.596;2023-06-22T12:25:08;18.30;;;4.72;;
74808;SDS011;63338;39.544;2.596;2023-06-22T12:27:36;15.18;;;4.50;;
74808;SDS011;63338;39.544;2.596;2023-06-22T12:30:05;17.60;;;4.47;;
74808;SDS011;63338;39.544;2.596;2023-06-22T12:32:32;13.98;;;4.40;;
74808;SDS011;63338;39.544;2.596;2023-06-22T12:35:01;18.13;;;4.97;;
74808;SDS011;63338;39.544;2.596;2023-06-22T12:37:40;16.80;;;4.53;;
74808;SDS011;63338;39.544;2.596;2023-06-22T12:40:11;14.70;;;4.05;;
74808;SDS011;63338;39.544;2.596;2023-06-22T12:42:40;14.40;;;4.43;;
74808;SDS011;63338;39.544;2.596;2023-06-22T12:45:12;19.52;;;4.40;;
74808;SDS011;63338;39.544;2.596;2023-06-22T12:47:41;16.92;;;5.10;;
74808;SDS011;63338;39.544;2.596;2023-06-22T12:50:09;15.15;;;4.82;;
74808;SDS011;63338;39.544;2.596;2023-06-22T12:52:39;17.58;;;4.47;;
74808;SDS011;63338;39.544;2.596;2023-06-22T12:55:06;16.30;;;4.22;;
74808;SDS011;63338;39.544;2.596;2023-06-22T12:57:35;13.93;;;4.30;;
74808;SDS011;63338;39.544;2.596;2023-06-22T13:00:04;19.33;;;4.47;;
74808;SDS011;63338;39.544;2.596;2023-06-22T13:02:54;13.52;;;4.55;;
74808;SDS011;63338;39.544;2.596;2023-06-22T13:05:50;16.35;;;4.45;;
74808;SDS011;63338;39.544;2.596;2023-06-22T13:08:16;13.63;;;4.75;;
74808;SDS011;63338;39.544;2.596;2023-06-22T13:10:42;9.82;;;3.10;;
74808;SDS011;63338;39.544;2.596;2023-06-22T13:13:08;14.88;;;3.90;;
74808;SDS011;63338;39.544;2.596;2023-06-22T13:15:34;15.48;;;3.75;;
74808;SDS011;63338;39.544;2.596;2023-06-22T13:18:02;15.32;;;4.22;;
74808;SDS011;63338;39.544;2.596;2023-06-22T13:20:32;13.20;;;4.00;;
74808;SDS011;63338;39.544;2.596;2023-06-22T13:23:04;14.88;;;3.53;;
74808;SDS011;63338;39.544;2.596;2023-06-22T13:25:32;13.07;;;3.53;;
74808;SDS011;63338;39.544;2.596;2023-06-22T13:28:03;12.43;;;3.70;;
74808;SDS011;63338;39.544;2.596;2023-06-22T13:30:29;14.93;;;3.20;;
74808;SDS011;63338;39.544;2.596;2023-06-22T13:32:58;15.93;;;3.90;;
74808;SDS011;63338;39.544;2.596;2023-06-22T13:35:27;13.30;;;3.33;;
74808;SDS011;63338;39.544;2.596;2023-06-22T13:37:55;10.63;;;3.70;;
74808;SDS011;63338;39.544;2.596;2023-06-22T13:40:24;11.65;;;3.13;;
74808;SDS011;63338;39.544;2.596;2023-06-22T13:42:50;12.35;;;3.40;;
74808;SDS011;63338;39.544;2.596;2023-06-22T13:45:19;12.88;;;2.90;;
74808;SDS011;63338;39.544;2.596;2023-06-22T13:47:50;9.52;;;3.10;;
74808;SDS011;63338;39.544;2.596;2023-06-22T13:50:30;8.38;;;2.78;;
74808;SDS011;63338;39.544;2.596;2023-06-22T13:53:31;9.02;;;2.50;;
74808;SDS011;63338;39.544;2.596;2023-06-22T13:56:05;8.93;;;2.50;;
74808;SDS011;63338;39.544;2.596;2023-06-22T13:58:35;9.43;;;2.50;;
74808;SDS011;63338;39.544;2.596;2023-06-22T14:03:41;8.18;;;2.65;;
74808;SDS011;63338;39.544;2.596;2023-06-22T14:06:18;9.98;;;2.75;;
74808;SDS011;63338;39.544;2.596;2023-06-22T14:08:47;14.38;;;2.90;;
74808;SDS011;63338;39.544;2.596;2023-06-22T14:11:18;8.48;;;2.58;;
74808;SDS011;63338;39.544;2.596;2023-06-22T14:13:50;7.00;;;2.55;;
74808;SDS011;63338;39.544;2.596;2023-06-22T14:16:18;8.02;;;2.40;;
74808;SDS011;63338;39.544;2.596;2023-06-22T14:18:48;7.35;;;2.28;;
74808;SDS011;63338;39.544;2.596;2023-06-22T14:21:19;7.82;;;2.22;;
74808;SDS011;63338;39.544;2.596;2023-06-22T14:23:48;8.30;;;2.80;;
74808;SDS011;63338;39.544;2.596;2023-06-22T14:26:22;7.05;;;2.70;;
74808;SDS011;63338;39.544;2.596;2023-06-22T14:28:57;9.77;;;2.75;;
74808;SDS011;63338;39.544;2.596;2023-06-22T14:31:54;7.15;;;2.10;;
74808;SDS011;63338;39.544;2.596;2023-06-22T14:34:23;5.45;;;2.28;;
74808;SDS011;63338;39.544;2.596;2023-06-22T14:36:57;7.25;;;2.25;;
74808;SDS011;63338;39.544;2.596;2023-06-22T14:39:31;9.60;;;2.30;;
74808;SDS011;63338;39.544;2.596;2023-06-22T14:42:56;7.50;;;2.50;;
74808;SDS011;63338;39.544;2.596;2023-06-22T14:45:25;7.63;;;2.40;;
74808;SDS011;63338;39.544;2.596;2023-06-22T14:47:53;10.70;;;2.72;;
74808;SDS011;63338;39.544;2.596;2023-06-22T14:50:25;9.75;;;2.67;;
74808;SDS011;63338;39.544;2.596;2023-06-22T14:52:51;8.52;;;2.30;;
74808;SDS011;63338;39.544;2.596;2023-06-22T14:55:19;9.05;;;2.75;;
74808;SDS011;63338;39.544;2.596;2023-06-22T14:57:45;9.65;;;2.42;;
74808;SDS011;63338;39.544;2.596;2023-06-22T15:00:13;6.65;;;2.50;;
74808;SDS011;63338;39.544;2.596;2023-06-22T15:02:42;7.22;;;2.70;;
74808;SDS011;63338;39.544;2.596;2023-06-22T15:05:08;6.78;;;2.40;;
74808;SDS011;63338;39.544;2.596;2023-06-22T15:07:35;10.05;;;2.30;;
74808;SDS011;63338;39.544;2.596;2023-06-22T15:10:01;12.30;;;2.58;;
74808;SDS011;63338;39.544;2.596;2023-06-22T15:12:32;7.53;;;2.55;;
74808;SDS011;63338;39.544;2.596;2023-06-22T15:15:03;7.68;;;2.53;;
74808;SDS011;63338;39.544;2.596;2023-06-22T15:17:32;8.23;;;2.45;;
74808;SDS011;63338;39.544;2.596;2023-06-22T15:20:04;8.82;;;2.45;;
74808;SDS011;63338;39.544;2.596;2023-06-22T15:22:30;7.20;;;2.20;;
74808;SDS011;63338;39.544;2.596;2023-06-22T15:25:01;9.02;;;2.40;;
74808;SDS011;63338;39.544;2.596;2023-06-22T15:27:28;11.30;;;2.45;;
74808;SDS011;63338;39.544;2.596;2023-06-22T15:29:55;11.48;;;2.72;;
74808;SDS011;63338;39.544;2.596;2023-06-22T15:32:53;7.35;;;2.58;;
74808;SDS011;63338;39.544;2.596;2023-06-22T15:35:19;12.52;;;2.80;;
74808;SDS011;63338;39.544;2.596;2023-06-22T15:37:46;8.57;;;2.55;;
74808;SDS011;63338;39.544;2.596;2023-06-22T15:40:12;6.47;;;2.20;;
74808;SDS011;63338;39.544;2.596;2023-06-22T15:42:39;6.45;;;2.05;;
74808;SDS011;63338;39.544;2.596;2023-06-22T15:45:15;6.13;;;2.15;;
74808;SDS011;63338;39.544;2.596;2023-06-22T15:47:42;6.05;;;2.10;;
74808;SDS011;63338;39.544;2.596;2023-06-22T15:50:09;5.03;;;1.83;;
74808;SDS011;63338;39.544;2.596;2023-06-22T15:52:35;8.98;;;2.10;;
74808;SDS011;63338;39.544;2.596;2023-06-22T15:55:01;6.65;;;2.10;;
74808;SDS011;63338;39.544;2.596;2023-06-22T15:57:29;8.30;;;2.05;;
74808;SDS011;63338;39.544;2.596;2023-06-22T15:59:56;9.00;;;2.30;;
74808;SDS011;63338;39.544;2.596;2023-06-22T16:02:25;5.32;;;2.00;;
74808;SDS011;63338;39.544;2.596;2023-06-22T16:04:53;5.85;;;1.92;;
74808;SDS011;63338;39.544;2.596;2023-06-22T16:07:22;5.80;;;1.83;;
74808;SDS011;63338;39.544;2.596;2023-06-22T16:09:53;4.38;;;1.70;;
74808;SDS011;63338;39.544;2.596;2023-06-22T16:12:26;8.60;;;1.95;;
74808;SDS011;63338;39.544;2.596;2023-06-22T16:14:55;6.70;;;2.15;;
74808;SDS011;63338;39.544;2.596;2023-06-22T16:17:30;6.13;;;1.95;;